sensor_id;sensor_type;location;lat;lon;timestamp;pressure;altitude;pressure_sealevel;temperature;humidity
31681;BME280;18281;51.364;9.566;2023-05-18T00:01:10;101086.19;;;4.28;86.13
31681;BME280;18281;51.364;9.566;2023-05-18T00:03:37;101079.28;;;4.24;86.87
31681;BME280;18281;51.364;9.566;2023-05-18T00:06:03;101075.00;;;4.23;86.72
31681;BME280;18281;51.364;9.566;2023-05-18T00:08:31;101079.41;;;4.16;87.42
31681;BME280;18281;51.364;9.566;2023-05-18T00:10:57;101067.34;;;4.12;88.29
31681;BME280;18281;51.364;9.566;2023-05-18T00:13:22;101070.84;;;4.06;88.33
31681;BME280;18281;51.364;9.566;2023-05-18T00:15:47;101079.50;;;4.07;87.75
31681;BME280;18281;51.364;9.566;2023-05-18T00:18:13;101069.16;;;4.02;87.54
31681;BME280;18281;51.364;9.566;2023-05-18T00:20:38;101072.66;;;3.98;87.91
31681;BME280;18281;51.364;9.566;2023-05-18T00:23:03;101078.75;;;3.96;88.33
31681;BME280;18281;51.364;9.566;2023-05-18T00:25:30;101080.63;;;3.84;89.34
31681;BME280;18281;51.364;9.566;2023-05-18T00:27:55;101083.31;;;3.74;89.53
31681;BME280;18281;51.364;9.566;2023-05-18T00:30:21;101084.22;;;3.71;90.96
31681;BME280;18281;51.364;9.566;2023-05-18T00:32:48;101081.66;;;3.66;91.92
31681;BME280;18281;51.364;9.566;2023-05-18T00:35:14;101081.63;;;3.69;91.50
31681;BME280;18281;51.364;9.566;2023-05-18T00:37:39;101088.53;;;3.70;92.39
31681;BME280;18281;51.364;9.566;2023-05-18T00:40:05;101083.34;;;3.69;92.65
31681;BME280;18281;51.364;9.566;2023-05-18T00:42:31;101092.00;;;3.71;92.00
31681;BME280;18281;51.364;9.566;2023-05-18T00:44:56;101076.59;;;3.52;94.50
31681;BME280;18281;51.364;9.566;2023-05-18T00:47:21;101080.84;;;3.63;93.13
31681;BME280;18281;51.364;9.566;2023-05-18T00:49:47;101085.16;;;3.62;95.08
31681;BME280;18281;51.364;9.566;2023-05-18T00:52:13;101089.41;;;3.71;93.23
31681;BME280;18281;51.364;9.566;2023-05-18T00:54:39;101079.88;;;3.70;92.28
31681;BME280;18281;51.364;9.566;2023-05-18T00:57:05;101088.59;;;3.66;92.91
31681;BME280;18281;51.364;9.566;2023-05-18T00:59:31;101086.00;;;3.66;92.15
31681;BME280;18281;51.364;9.566;2023-05-18T01:01:57;101090.31;;;3.64;91.56
31681;BME280;18281;51.364;9.566;2023-05-18T01:04:22;101080.94;;;3.52;93.14
31681;BME280;18281;51.364;9.566;2023-05-18T01:06:49;101085.34;;;3.39;95.85
31681;BME280;18281;51.364;9.566;2023-05-18T01:09:15;101081.81;;;3.51;94.02
31681;BME280;18281;51.364;9.566;2023-05-18T01:12:05;101086.03;;;3.60;93.78
31681;BME280;18281;51.364;9.566;2023-05-18T01:14:37;101083.44;;;3.60;93.05
31681;BME280;18281;51.364;9.566;2023-05-18T01:25:14;101094.81;;;3.46;95.56
31681;BME280;18281;51.364;9.566;2023-05-18T01:27:44;101087.09;;;3.35;96.67
31681;BME280;18281;51.364;9.566;2023-05-18T01:30:14;101082.72;;;3.39;95.76
31681;BME280;18281;51.364;9.566;2023-05-18T01:32:40;101081.88;;;3.40;94.56
31681;BME280;18281;51.364;9.566;2023-05-18T01:35:07;101085.34;;;3.39;94.35
31681;BME280;18281;51.364;9.566;2023-05-18T01:37:32;101087.06;;;3.37;94.78
31681;BME280;18281;51.364;9.566;2023-05-18T01:39:58;101087.94;;;3.39;94.25
31681;BME280;18281;51.364;9.566;2023-05-18T01:42:25;101089.72;;;3.32;93.59
31681;BME280;18281;51.364;9.566;2023-05-18T01:44:57;101091.47;;;3.29;94.42
31681;BME280;18281;51.364;9.566;2023-05-18T01:47:27;101092.38;;;3.23;94.38
31681;BME280;18281;51.364;9.566;2023-05-18T01:50:05;101092.38;;;3.23;93.89
31681;BME280;18281;51.364;9.566;2023-05-18T01:52:35;101092.41;;;3.20;94.80
31681;BME280;18281;51.364;9.566;2023-05-18T01:55:03;101100.28;;;3.06;96.89
31681;BME280;18281;51.364;9.566;2023-05-18T01:57:30;101095.03;;;3.14;95.56
31681;BME280;18281;51.364;9.566;2023-05-18T02:00:00;101098.47;;;3.14;95.55
31681;BME280;18281;51.364;9.566;2023-05-18T02:02:27;101094.19;;;3.13;94.69
31681;BME280;18281;51.364;9.566;2023-05-18T02:04:53;101093.31;;;3.13;94.00
31681;BME280;18281;51.364;9.566;2023-05-18T02:07:19;101096.84;;;3.01;95.42
31681;BME280;18281;51.364;9.566;2023-05-18T02:09:44;101091.75;;;2.92;96.81
31681;BME280;18281;51.364;9.566;2023-05-18T02:12:10;101098.63;;;2.96;96.46
31681;BME280;18281;51.364;9.566;2023-05-18T02:14:35;101096.88;;;2.98;94.64
31681;BME280;18281;51.364;9.566;2023-05-18T02:17:01;101089.97;;;2.94;94.48
31681;BME280;18281;51.364;9.566;2023-05-18T02:19:27;101101.22;;;2.96;93.90
31681;BME280;18281;51.364;9.566;2023-05-18T02:21:55;101096.94;;;2.92;94.14
31681;BME280;18281;51.364;9.566;2023-05-18T02:24:20;101097.84;;;2.83;94.34
31681;BME280;18281;51.364;9.566;2023-05-18T02:26:47;101101.28;;;2.83;95.21
31681;BME280;18281;51.364;9.566;2023-05-18T02:29:12;101096.97;;;2.79;94.78
31681;BME280;18281;51.364;9.566;2023-05-18T02:31:38;101103.88;;;2.83;93.48
31681;BME280;18281;51.364;9.566;2023-05-18T02:34:04;101093.53;;;2.74;94.64
31681;BME280;18281;51.364;9.566;2023-05-18T02:36:29;101100.50;;;2.72;94.79
31681;BME280;18281;51.364;9.566;2023-05-18T02:39:04;101103.94;;;2.71;94.49
31681;BME280;18281;51.364;9.566;2023-05-18T02:41:33;101104.84;;;2.67;94.84
31681;BME280;18281;51.364;9.566;2023-05-18T02:43:59;101104.84;;;2.61;96.37
31681;BME280;18281;51.364;9.566;2023-05-18T02:46:27;101101.41;;;2.59;96.34
31681;BME280;18281;51.364;9.566;2023-05-18T02:48:52;101105.72;;;2.63;96.71
31681;BME280;18281;51.364;9.566;2023-05-18T02:51:17;101101.38;;;2.65;95.07
31681;BME280;18281;51.364;9.566;2023-05-18T02:53:43;101099.69;;;2.59;95.19
31681;BME280;18281;51.364;9.566;2023-05-18T02:56:09;101107.47;;;2.56;95.00
31681;BME280;18281;51.364;9.566;2023-05-18T02:58:36;101101.44;;;2.52;94.80
31681;BME280;18281;51.364;9.566;2023-05-18T03:01:01;101109.25;;;2.43;96.55
31681;BME280;18281;51.364;9.566;2023-05-18T03:03:28;101104.06;;;2.45;96.06
31681;BME280;18281;51.364;9.566;2023-05-18T03:05:53;101110.16;;;2.42;95.65
31681;BME280;18281;51.364;9.566;2023-05-18T03:08:20;101119.63;;;2.42;95.04
31681;BME280;18281;51.364;9.566;2023-05-18T03:10:47;101116.19;;;2.40;95.83
31681;BME280;18281;51.364;9.566;2023-05-18T03:13:12;101114.47;;;2.40;95.13
31681;BME280;18281;51.364;9.566;2023-05-18T03:15:39;101113.59;;;2.40;94.51
31681;BME280;18281;51.364;9.566;2023-05-18T03:18:04;101119.66;;;2.34;94.92
31681;BME280;18281;51.364;9.566;2023-05-18T03:20:30;101110.22;;;2.24;96.69
31681;BME280;18281;51.364;9.566;2023-05-18T03:22:56;101114.53;;;2.26;95.14
31681;BME280;18281;51.364;9.566;2023-05-18T03:25:21;101111.03;;;2.26;95.73
31681;BME280;18281;51.364;9.566;2023-05-18T03:27:52;101119.69;;;2.25;94.74
31681;BME280;18281;51.364;9.566;2023-05-18T03:30:18;101111.91;;;2.21;94.83
31681;BME280;18281;51.364;9.566;2023-05-18T03:32:45;101117.16;;;2.15;96.26
31681;BME280;18281;51.364;9.566;2023-05-18T03:35:11;101117.13;;;2.11;97.45
31681;BME280;18281;51.364;9.566;2023-05-18T03:37:37;101117.16;;;2.00;100.00
31681;BME280;18281;51.364;9.566;2023-05-18T03:40:13;101120.59;;;2.07;99.78
31681;BME280;18281;51.364;9.566;2023-05-18T03:42:40;101122.34;;;1.94;99.88
31681;BME280;18281;51.364;9.566;2023-05-18T03:45:09;101124.09;;;1.88;100.00
31681;BME280;18281;51.364;9.566;2023-05-18T03:47:36;101128.41;;;2.02;98.37
31681;BME280;18281;51.364;9.566;2023-05-18T03:50:02;101118.88;;;2.05;97.26
31681;BME280;18281;51.364;9.566;2023-05-18T03:52:28;101123.22;;;1.96;97.52
31681;BME280;18281;51.364;9.566;2023-05-18T03:54:54;101124.94;;;1.94;97.01
31681;BME280;18281;51.364;9.566;2023-05-18T03:57:20;101131.88;;;1.90;97.45
31681;BME280;18281;51.364;9.566;2023-05-18T03:59:45;101131.00;;;1.83;99.95
31681;BME280;18281;51.364;9.566;2023-05-18T04:02:11;101131.00;;;1.88;98.85
31681;BME280;18281;51.364;9.566;2023-05-18T04:04:37;101128.41;;;1.90;98.59
31681;BME280;18281;51.364;9.566;2023-05-18T04:07:08;101131.88;;;1.90;97.58
31681;BME280;18281;51.364;9.566;2023-05-18T04:09:34;101126.69;;;1.84;97.41
31681;BME280;18281;51.364;9.566;2023-05-18T04:11:59;101133.59;;;1.83;97.70
31681;BME280;18281;51.364;9.566;2023-05-18T04:14:26;101129.28;;;1.82;97.35
31681;BME280;18281;51.364;9.566;2023-05-18T04:16:52;101135.31;;;1.81;97.86
31681;BME280;18281;51.364;9.566;2023-05-18T04:19:18;101137.06;;;1.68;100.00
31681;BME280;18281;51.364;9.566;2023-05-18T04:21:46;101141.38;;;1.76;100.00
31681;BME280;18281;51.364;9.566;2023-05-18T04:24:11;101137.06;;;1.82;98.79
31681;BME280;18281;51.364;9.566;2023-05-18T04:26:38;101141.38;;;1.83;97.70
31681;BME280;18281;51.364;9.566;2023-05-18T04:29:04;101141.38;;;1.82;97.31
31681;BME280;18281;51.364;9.566;2023-05-18T04:31:31;101132.75;;;1.78;98.19
31681;BME280;18281;51.364;9.566;2023-05-18T04:33:58;101133.59;;;1.79;98.70
31681;BME280;18281;51.364;9.566;2023-05-18T04:36:24;101139.66;;;1.81;98.96
31681;BME280;18281;51.364;9.566;2023-05-18T04:38:51;101145.69;;;1.81;99.23
31681;BME280;18281;51.364;9.566;2023-05-18T04:41:17;101148.28;;;1.80;98.42
31681;BME280;18281;51.364;9.566;2023-05-18T04:43:44;101150.00;;;1.81;98.95
31681;BME280;18281;51.364;9.566;2023-05-18T04:46:11;101161.22;;;1.69;100.00
31681;BME280;18281;51.364;9.566;2023-05-18T04:48:37;101159.50;;;1.68;100.00
31681;BME280;18281;51.364;9.566;2023-05-18T04:51:03;101155.19;;;1.65;100.00
31681;BME280;18281;51.364;9.566;2023-05-18T04:53:28;101151.72;;;1.76;100.00
31681;BME280;18281;51.364;9.566;2023-05-18T04:55:57;101154.31;;;1.76;100.00
31681;BME280;18281;51.364;9.566;2023-05-18T04:58:25;101156.03;;;1.74;100.00
31681;BME280;18281;51.364;9.566;2023-05-18T05:00:51;101155.19;;;1.68;100.00
31681;BME280;18281;51.364;9.566;2023-05-18T05:03:17;101156.03;;;1.69;100.00
31681;BME280;18281;51.364;9.566;2023-05-18T05:05:42;101149.16;;;1.74;100.00
31681;BME280;18281;51.364;9.566;2023-05-18T05:08:08;101150.88;;;1.75;100.00
31681;BME280;18281;51.364;9.566;2023-05-18T05:10:33;101143.97;;;1.74;100.00
31681;BME280;18281;51.364;9.566;2023-05-18T05:12:58;101151.72;;;1.83;100.00
31681;BME280;18281;51.364;9.566;2023-05-18T05:15:24;101154.31;;;1.86;100.00
31681;BME280;18281;51.364;9.566;2023-05-18T05:17:49;101149.13;;;1.77;100.00
31681;BME280;18281;51.364;9.566;2023-05-18T05:20:15;101143.94;;;1.86;100.00
31681;BME280;18281;51.364;9.566;2023-05-18T05:22:41;101148.25;;;1.97;100.00
31681;BME280;18281;51.364;9.566;2023-05-18T05:25:06;101147.16;;;2.72;100.00
31681;BME280;18281;51.364;9.566;2023-05-18T05:27:32;101144.94;;;3.53;100.00
31681;BME280;18281;51.364;9.566;2023-05-18T05:29:57;101145.38;;;4.01;100.00
31681;BME280;18281;51.364;9.566;2023-05-18T05:32:23;101138.19;;;4.30;100.00
31681;BME280;18281;51.364;9.566;2023-05-18T05:34:49;101136.97;;;4.59;100.00
31681;BME280;18281;51.364;9.566;2023-05-18T05:37:16;101134.97;;;4.78;96.53
31681;BME280;18281;51.364;9.566;2023-05-18T05:39:42;101145.22;;;4.88;94.74
31681;BME280;18281;51.364;9.566;2023-05-18T05:42:07;101135.56;;;5.00;93.22
31681;BME280;18281;51.364;9.566;2023-05-18T05:44:33;101124.94;;;5.14;92.76
31681;BME280;18281;51.364;9.566;2023-05-18T05:46:59;101135.31;;;5.17;91.97
31681;BME280;18281;51.364;9.566;2023-05-18T05:49:24;101131.66;;;5.27;91.81
31681;BME280;18281;51.364;9.566;2023-05-18T05:51:49;101128.97;;;5.33;91.31
31681;BME280;18281;51.364;9.566;2023-05-18T05:54:15;101133.97;;;5.50;91.36
31681;BME280;18281;51.364;9.566;2023-05-18T05:56:40;101125.06;;;5.64;90.74
31681;BME280;18281;51.364;9.566;2023-05-18T05:59:05;101131.88;;;5.71;89.92
31681;BME280;18281;51.364;9.566;2023-05-18T06:01:31;101134.34;;;5.79;89.98
31681;BME280;18281;51.364;9.566;2023-05-18T06:03:56;101130.66;;;5.90;89.34
31681;BME280;18281;51.364;9.566;2023-05-18T06:06:22;101133.28;;;5.90;89.28
31681;BME280;18281;51.364;9.566;2023-05-18T06:08:47;101131.44;;;5.96;89.50
31681;BME280;18281;51.364;9.566;2023-05-18T06:11:12;101129.66;;;5.98;89.48
31681;BME280;18281;51.364;9.566;2023-05-18T06:13:38;101135.34;;;6.18;89.17
31681;BME280;18281;51.364;9.566;2023-05-18T06:16:03;101135.13;;;6.31;87.89
31681;BME280;18281;51.364;9.566;2023-05-18T06:18:29;101135.69;;;6.47;86.01
31681;BME280;18281;51.364;9.566;2023-05-18T06:20:54;101137.97;;;6.62;84.79
31681;BME280;18281;51.364;9.566;2023-05-18T06:23:20;101138.53;;;6.77;83.71
31681;BME280;18281;51.364;9.566;2023-05-18T06:25:48;101133.19;;;6.81;82.61
31681;BME280;18281;51.364;9.566;2023-05-18T06:28:13;101139.03;;;6.94;81.25
31681;BME280;18281;51.364;9.566;2023-05-18T06:30:39;101135.44;;;7.00;81.05
31681;BME280;18281;51.364;9.566;2023-05-18T06:33:05;101140.88;;;6.89;80.05
31681;BME280;18281;51.364;9.566;2023-05-18T06:35:30;101140.31;;;6.76;80.48
31681;BME280;18281;51.364;9.566;2023-05-18T06:37:55;101142.25;;;6.65;81.48
31681;BME280;18281;51.364;9.566;2023-05-18T06:40:21;101143.31;;;6.56;82.19
31681;BME280;18281;51.364;9.566;2023-05-18T06:42:46;101145.25;;;6.46;81.65
31681;BME280;18281;51.364;9.566;2023-05-18T06:45:11;101144.09;;;6.60;81.10
31681;BME280;18281;51.364;9.566;2023-05-18T06:47:37;101148.31;;;6.65;81.16
31681;BME280;18281;51.364;9.566;2023-05-18T06:50:02;101136.09;;;6.69;81.36
31681;BME280;18281;51.364;9.566;2023-05-18T06:52:28;101145.72;;;6.67;81.69
31681;BME280;18281;51.364;9.566;2023-05-18T06:54:53;101134.19;;;6.76;81.26
31681;BME280;18281;51.364;9.566;2023-05-18T06:57:19;101135.84;;;6.80;81.51
31681;BME280;18281;51.364;9.566;2023-05-18T06:59:44;101138.19;;;6.94;81.24
31681;BME280;18281;51.364;9.566;2023-05-18T07:02:10;101134.34;;;7.10;80.73
31681;BME280;18281;51.364;9.566;2023-05-18T07:04:35;101136.19;;;7.05;80.26
31681;BME280;18281;51.364;9.566;2023-05-18T07:07:01;101134.31;;;7.48;82.59
31681;BME280;18281;51.364;9.566;2023-05-18T07:09:26;101129.34;;;7.73;84.17
31681;BME280;18281;51.364;9.566;2023-05-18T07:11:52;101130.31;;;8.02;84.68
31681;BME280;18281;51.364;9.566;2023-05-18T07:14:18;101124.47;;;8.25;84.02
31681;BME280;18281;51.364;9.566;2023-05-18T07:16:43;101121.59;;;8.34;82.93
31681;BME280;18281;51.364;9.566;2023-05-18T07:19:11;101119.06;;;8.63;82.86
31681;BME280;18281;51.364;9.566;2023-05-18T07:21:36;101125.91;;;8.97;82.16
31681;BME280;18281;51.364;9.566;2023-05-18T07:24:02;101121.56;;;8.96;81.50
31681;BME280;18281;51.364;9.566;2023-05-18T07:26:27;101121.91;;;9.13;80.25
31681;BME280;18281;51.364;9.566;2023-05-18T07:28:53;101124.56;;;9.40;79.69
31681;BME280;18281;51.364;9.566;2023-05-18T07:31:19;101122.66;;;9.44;78.73
31681;BME280;18281;51.364;9.566;2023-05-18T07:33:46;101124.44;;;9.43;78.04
31681;BME280;18281;51.364;9.566;2023-05-18T07:36:14;101121.94;;;9.67;78.30
31681;BME280;18281;51.364;9.566;2023-05-18T07:38:39;101116.72;;;9.65;76.60
31681;BME280;18281;51.364;9.566;2023-05-18T07:41:05;101114.28;;;9.86;77.74
31681;BME280;18281;51.364;9.566;2023-05-18T07:43:30;101111.22;;;9.98;77.56
31681;BME280;18281;51.364;9.566;2023-05-18T07:45:55;101119.09;;;9.98;76.21
31681;BME280;18281;51.364;9.566;2023-05-18T07:48:21;101118.06;;;10.28;76.73
31681;BME280;18281;51.364;9.566;2023-05-18T07:50:46;101112.72;;;10.05;74.21
31681;BME280;18281;51.364;9.566;2023-05-18T07:53:11;101111.59;;;10.13;74.75
31681;BME280;18281;51.364;9.566;2023-05-18T07:55:37;101117.94;;;10.31;75.26
31681;BME280;18281;51.364;9.566;2023-05-18T07:58:02;101117.25;;;10.49;75.62
31681;BME280;18281;51.364;9.566;2023-05-18T08:00:28;101118.84;;;10.53;76.07
31681;BME280;18281;51.364;9.566;2023-05-18T08:02:53;101113.78;;;10.49;74.35
31681;BME280;18281;51.364;9.566;2023-05-18T08:05:19;101114.16;;;10.62;73.37
31681;BME280;18281;51.364;9.566;2023-05-18T08:07:46;101118.03;;;10.75;73.93
31681;BME280;18281;51.364;9.566;2023-05-18T08:10:12;101114.63;;;10.97;74.37
31681;BME280;18281;51.364;9.566;2023-05-18T08:12:37;101126.41;;;10.86;73.93
31681;BME280;18281;51.364;9.566;2023-05-18T08:15:03;101109.56;;;11.13;74.38
31681;BME280;18281;51.364;9.566;2023-05-18T08:17:28;101116.38;;;11.18;73.70
31681;BME280;18281;51.364;9.566;2023-05-18T08:19:53;101112.94;;;11.16;73.04
31681;BME280;18281;51.364;9.566;2023-05-18T08:22:19;101103.13;;;11.42;73.25
31681;BME280;18281;51.364;9.566;2023-05-18T08:24:45;101113.00;;;11.57;73.19
31681;BME280;18281;51.364;9.566;2023-05-18T08:27:11;101103.69;;;11.50;71.25
31681;BME280;18281;51.364;9.566;2023-05-18T08:29:36;101100.25;;;11.69;72.47
31681;BME280;18281;51.364;9.566;2023-05-18T08:32:05;101095.34;;;11.61;69.58
31681;BME280;18281;51.364;9.566;2023-05-18T08:34:31;101098.25;;;11.96;71.36
31681;BME280;18281;51.364;9.566;2023-05-18T08:36:56;101095.13;;;12.07;71.04
31681;BME280;18281;51.364;9.566;2023-05-18T08:39:21;101083.81;;;12.05;70.58
31681;BME280;18281;51.364;9.566;2023-05-18T08:41:56;101089.28;;;12.00;69.07
31681;BME280;18281;51.364;9.566;2023-05-18T08:44:30;101087.38;;;12.04;70.20
31681;BME280;18281;51.364;9.566;2023-05-18T08:46:59;101083.34;;;12.35;73.57
31681;BME280;18281;51.364;9.566;2023-05-18T08:49:25;101080.56;;;12.38;71.95
31681;BME280;18281;51.364;9.566;2023-05-18T08:51:56;101081.22;;;12.62;71.60
31681;BME280;18281;51.364;9.566;2023-05-18T08:54:22;101077.78;;;12.60;71.62
31681;BME280;18281;51.364;9.566;2023-05-18T08:56:48;101073.22;;;12.64;69.30
31681;BME280;18281;51.364;9.566;2023-05-18T08:59:15;101076.50;;;12.69;69.99
31681;BME280;18281;51.364;9.566;2023-05-18T09:01:42;101072.59;;;12.78;68.45
31681;BME280;18281;51.364;9.566;2023-05-18T09:04:08;101084.34;;;12.70;68.79
31681;BME280;18281;51.364;9.566;2023-05-18T09:06:34;101072.88;;;12.71;70.46
31681;BME280;18281;51.364;9.566;2023-05-18T09:09:00;101074.94;;;12.65;70.79
31681;BME280;18281;51.364;9.566;2023-05-18T09:11:30;101076.84;;;12.61;70.43
31681;BME280;18281;51.364;9.566;2023-05-18T09:13:58;101077.47;;;12.85;69.70
31681;BME280;18281;51.364;9.566;2023-05-18T09:16:23;101072.06;;;12.88;69.78
31681;BME280;18281;51.364;9.566;2023-05-18T09:18:49;101067.44;;;12.74;69.70
31681;BME280;18281;51.364;9.566;2023-05-18T09:21:14;101065.25;;;12.84;69.29
31681;BME280;18281;51.364;9.566;2023-05-18T09:23:40;101065.38;;;12.81;69.83
31681;BME280;18281;51.364;9.566;2023-05-18T09:26:06;101071.44;;;12.83;70.39
31681;BME280;18281;51.364;9.566;2023-05-18T09:28:35;101077.06;;;12.95;69.87
31681;BME280;18281;51.364;9.566;2023-05-18T09:31:02;101076.28;;;12.92;69.89
31681;BME280;18281;51.364;9.566;2023-05-18T09:33:35;101073.72;;;12.91;70.08
31681;BME280;18281;51.364;9.566;2023-05-18T09:36:07;101080.31;;;13.00;69.17
31681;BME280;18281;51.364;9.566;2023-05-18T09:38:40;101071.50;;;13.01;65.62
31681;BME280;18281;51.364;9.566;2023-05-18T09:41:13;101084.72;;;13.36;66.70
31681;BME280;18281;51.364;9.566;2023-05-18T09:43:39;101070.28;;;13.25;65.21
31681;BME280;18281;51.364;9.566;2023-05-18T09:46:09;101067.81;;;13.40;64.86
31681;BME280;18281;51.364;9.566;2023-05-18T09:48:35;101076.06;;;13.15;65.33
31681;BME280;18281;51.364;9.566;2023-05-18T09:51:03;101072.44;;;13.17;64.63
31681;BME280;18281;51.364;9.566;2023-05-18T09:53:28;101070.72;;;13.16;62.84
31681;BME280;18281;51.364;9.566;2023-05-18T09:55:54;101070.69;;;13.35;63.34
31681;BME280;18281;51.364;9.566;2023-05-18T09:58:19;101063.94;;;13.47;63.86
31681;BME280;18281;51.364;9.566;2023-05-18T10:00:48;101073.25;;;13.37;64.12
31681;BME280;18281;51.364;9.566;2023-05-18T10:03:17;101081.22;;;13.18;63.93
31681;BME280;18281;51.364;9.566;2023-05-18T10:05:43;101070.13;;;13.11;64.18
31681;BME280;18281;51.364;9.566;2023-05-18T10:08:11;101062.44;;;13.24;64.53
31681;BME280;18281;51.364;9.566;2023-05-18T10:10:37;101070.13;;;13.29;64.27
31681;BME280;18281;51.364;9.566;2023-05-18T10:13:03;101059.97;;;13.56;63.52
31681;BME280;18281;51.364;9.566;2023-05-18T10:15:29;101063.91;;;13.65;62.58
31681;BME280;18281;51.364;9.566;2023-05-18T10:17:56;101068.13;;;13.51;61.64
31681;BME280;18281;51.364;9.566;2023-05-18T10:20:22;101067.16;;;13.52;62.47
31681;BME280;18281;51.364;9.566;2023-05-18T10:22:49;101059.19;;;13.54;60.26
31681;BME280;18281;51.364;9.566;2023-05-18T10:25:19;101057.53;;;13.69;62.18
31681;BME280;18281;51.364;9.566;2023-05-18T10:27:47;101050.16;;;13.75;62.88
31681;BME280;18281;51.364;9.566;2023-05-18T10:30:14;101052.09;;;13.72;61.06
31681;BME280;18281;51.364;9.566;2023-05-18T10:32:42;101058.91;;;13.76;61.78
31681;BME280;18281;51.364;9.566;2023-05-18T10:35:08;101047.94;;;14.01;61.86
31681;BME280;18281;51.364;9.566;2023-05-18T10:37:34;101056.63;;;14.03;61.54
31681;BME280;18281;51.364;9.566;2023-05-18T10:40:02;101053.34;;;13.82;61.92
31681;BME280;18281;51.364;9.566;2023-05-18T10:42:29;101055.72;;;13.87;62.44
31681;BME280;18281;51.364;9.566;2023-05-18T10:44:56;101049.81;;;13.82;62.16
31681;BME280;18281;51.364;9.566;2023-05-18T10:47:23;101057.66;;;13.83;61.77
31681;BME280;18281;51.364;9.566;2023-05-18T10:49:50;101049.81;;;13.82;60.92
31681;BME280;18281;51.364;9.566;2023-05-18T10:52:16;101036.69;;;13.98;62.24
31681;BME280;18281;51.364;9.566;2023-05-18T10:54:42;101043.69;;;13.99;62.68
31681;BME280;18281;51.364;9.566;2023-05-18T10:57:13;101037.91;;;14.08;62.63
31681;BME280;18281;51.364;9.566;2023-05-18T10:59:43;101042.34;;;14.07;62.01
31681;BME280;18281;51.364;9.566;2023-05-18T11:02:12;101046.59;;;14.10;63.25
31681;BME280;18281;51.364;9.566;2023-05-18T11:04:39;101032.56;;;14.25;62.84
31681;BME280;18281;51.364;9.566;2023-05-18T11:07:09;101036.81;;;14.28;61.75
31681;BME280;18281;51.364;9.566;2023-05-18T11:09:35;101029.09;;;14.41;62.15
31681;BME280;18281;51.364;9.566;2023-05-18T11:12:01;101029.66;;;14.30;60.54
31681;BME280;18281;51.364;9.566;2023-05-18T11:14:31;101027.53;;;14.05;60.41
31681;BME280;18281;51.364;9.566;2023-05-18T11:17:22;101029.91;;;14.25;61.34
31681;BME280;18281;51.364;9.566;2023-05-18T11:22:50;101024.38;;;14.46;61.65
31681;BME280;18281;51.364;9.566;2023-05-18T11:27:59;101015.28;;;14.52;61.21
31681;BME280;18281;51.364;9.566;2023-05-18T11:36:09;101019.50;;;14.06;59.82
31681;BME280;18281;51.364;9.566;2023-05-18T11:39:04;101024.88;;;14.37;59.21
31681;BME280;18281;51.364;9.566;2023-05-18T11:41:35;101014.41;;;14.35;60.76
31681;BME280;18281;51.364;9.566;2023-05-18T11:44:04;101031.47;;;14.46;60.95
31681;BME280;18281;51.364;9.566;2023-05-18T11:46:31;101017.97;;;14.50;60.28
31681;BME280;18281;51.364;9.566;2023-05-18T11:49:02;101012.53;;;14.69;60.88
31681;BME280;18281;51.364;9.566;2023-05-18T11:51:30;101020.28;;;14.72;60.22
31681;BME280;18281;51.364;9.566;2023-05-18T11:53:57;101014.06;;;14.73;59.57
31681;BME280;18281;51.364;9.566;2023-05-18T11:56:24;101008.69;;;14.59;60.38
31681;BME280;18281;51.364;9.566;2023-05-18T11:59:12;101009.41;;;14.77;60.44
31681;BME280;18281;51.364;9.566;2023-05-18T12:01:40;101009.09;;;14.83;60.30
31681;BME280;18281;51.364;9.566;2023-05-18T12:04:06;101005.84;;;14.78;59.73
31681;BME280;18281;51.364;9.566;2023-05-18T12:06:32;101006.22;;;14.88;61.22
31681;BME280;18281;51.364;9.566;2023-05-18T12:08:58;101006.44;;;14.99;60.96
31681;BME280;18281;51.364;9.566;2023-05-18T12:11:24;101003.09;;;14.96;60.51
31681;BME280;18281;51.364;9.566;2023-05-18T12:13:50;101000.94;;;15.02;59.46
31681;BME280;18281;51.364;9.566;2023-05-18T12:16:17;100999.47;;;15.13;60.79
31681;BME280;18281;51.364;9.566;2023-05-18T12:18:49;100992.41;;;15.27;60.29
31681;BME280;18281;51.364;9.566;2023-05-18T12:21:24;100993.63;;;15.22;60.34
31681;BME280;18281;51.364;9.566;2023-05-18T12:23:57;100991.00;;;15.22;60.64
31681;BME280;18281;51.364;9.566;2023-05-18T12:26:23;100994.47;;;15.22;60.33
31681;BME280;18281;51.364;9.566;2023-05-18T12:28:50;100990.22;;;15.20;59.90
31681;BME280;18281;51.364;9.566;2023-05-18T12:31:16;100989.38;;;15.19;59.82
31681;BME280;18281;51.364;9.566;2023-05-18T12:33:42;100991.16;;;15.04;60.39
31681;BME280;18281;51.364;9.566;2023-05-18T12:36:12;100986.53;;;15.22;60.81
31681;BME280;18281;51.364;9.566;2023-05-18T12:38:37;100978.16;;;15.30;59.24
31681;BME280;18281;51.364;9.566;2023-05-18T12:41:02;100978.50;;;15.24;60.30
31681;BME280;18281;51.364;9.566;2023-05-18T12:43:32;100973.72;;;15.45;59.35
31681;BME280;18281;51.364;9.566;2023-05-18T12:46:00;100973.25;;;15.38;60.49
31681;BME280;18281;51.364;9.566;2023-05-18T12:48:26;100972.66;;;15.33;57.39
31681;BME280;18281;51.364;9.566;2023-05-18T12:50:52;100987.81;;;15.31;58.88
31681;BME280;18281;51.364;9.566;2023-05-18T12:53:17;100984.09;;;15.19;58.56
31681;BME280;18281;51.364;9.566;2023-05-18T12:55:43;100976.69;;;15.10;56.77
31681;BME280;18281;51.364;9.566;2023-05-18T12:58:14;100975.22;;;15.20;56.81
31681;BME280;18281;51.364;9.566;2023-05-18T13:00:44;100970.75;;;15.21;56.68
31681;BME280;18281;51.364;9.566;2023-05-18T13:03:12;100963.41;;;15.26;56.74
31681;BME280;18281;51.364;9.566;2023-05-18T13:05:38;100964.19;;;15.28;57.21
31681;BME280;18281;51.364;9.566;2023-05-18T13:08:06;100968.06;;;15.37;57.45
31681;BME280;18281;51.364;9.566;2023-05-18T13:10:31;100969.53;;;15.26;57.15
31681;BME280;18281;51.364;9.566;2023-05-18T13:12:58;100979.50;;;14.92;56.35